sensor_id;sensor_type;location;lat;lon;timestamp;temperature;humidity
18797;DHT22;9526;52.612;13.300;2023-04-03T00:01:45;1.60;99.90
18797;DHT22;9526;52.612;13.300;2023-04-03T00:04:10;1.60;99.90
18797;DHT22;9526;52.612;13.300;2023-04-03T00:06:33;1.60;99.90
18797;DHT22;9526;52.612;13.300;2023-04-03T00:08:58;1.60;99.90
18797;DHT22;9526;52.612;13.300;2023-04-03T00:11:22;1.50;99.90
18797;DHT22;9526;52.612;13.300;2023-04-03T00:13:47;1.50;99.90
18797;DHT22;9526;52.612;13.300;2023-04-03T00:16:11;1.50;99.90
18797;DHT22;9526;52.612;13.300;2023-04-03T00:18:35;1.50;99.90
18797;DHT22;9526;52.612;13.300;2023-04-03T00:20:59;1.50;99.90
18797;DHT22;9526;52.612;13.300;2023-04-03T00:23:23;1.50;99.90
18797;DHT22;9526;52.612;13.300;2023-04-03T00:25:47;1.40;99.90
18797;DHT22;9526;52.612;13.300;2023-04-03T00:28:10;1.40;99.90
18797;DHT22;9526;52.612;13.300;2023-04-03T00:30:36;1.40;99.90
18797;DHT22;9526;52.612;13.300;2023-04-03T00:33:00;1.40;99.90
18797;DHT22;9526;52.612;13.300;2023-04-03T00:35:24;1.30;99.90
18797;DHT22;9526;52.612;13.300;2023-04-03T00:37:50;1.30;99.90
18797;DHT22;9526;52.612;13.300;2023-04-03T00:40:15;1.30;99.90
18797;DHT22;9526;52.612;13.300;2023-04-03T00:42:41;1.30;99.90
18797;DHT22;9526;52.612;13.300;2023-04-03T00:45:27;1.30;99.90
18797;DHT22;9526;52.612;13.300;2023-04-03T00:48:06;1.20;99.90
18797;DHT22;9526;52.612;13.300;2023-04-03T00:50:35;1.20;99.90
18797;DHT22;9526;52.612;13.300;2023-04-03T00:53:00;1.20;99.90
18797;DHT22;9526;52.612;13.300;2023-04-03T00:55:25;1.20;99.90
18797;DHT22;9526;52.612;13.300;2023-04-03T00:57:49;1.20;99.90
18797;DHT22;9526;52.612;13.300;2023-04-03T01:00:15;1.20;99.90
18797;DHT22;9526;52.612;13.300;2023-04-03T01:02:40;1.10;99.90
18797;DHT22;9526;52.612;13.300;2023-04-03T01:05:08;1.10;99.90
18797;DHT22;9526;52.612;13.300;2023-04-03T01:07:32;1.10;99.90
18797;DHT22;9526;52.612;13.300;2023-04-03T01:10:00;1.10;99.90
18797;DHT22;9526;52.612;13.300;2023-04-03T01:12:28;1.10;99.90
18797;DHT22;9526;52.612;13.300;2023-04-03T01:14:56;1.10;99.90
18797;DHT22;9526;52.612;13.300;2023-04-03T01:17:29;1.10;99.90
18797;DHT22;9526;52.612;13.300;2023-04-03T01:23:25;1.00;99.90
18797;DHT22;9526;52.612;13.300;2023-04-03T01:25:55;1.00;99.90
18797;DHT22;9526;52.612;13.300;2023-04-03T01:28:22;0.90;99.90
18797;DHT22;9526;52.612;13.300;2023-04-03T01:30:50;0.90;99.90
18797;DHT22;9526;52.612;13.300;2023-04-03T01:33:18;0.90;99.90
18797;DHT22;9526;52.612;13.300;2023-04-03T01:35:42;0.90;99.90
18797;DHT22;9526;52.612;13.300;2023-04-03T01:38:07;0.80;99.90
18797;DHT22;9526;52.612;13.300;2023-04-03T01:40:31;0.80;99.90
18797;DHT22;9526;52.612;13.300;2023-04-03T01:42:55;0.80;99.90
18797;DHT22;9526;52.612;13.300;2023-04-03T01:45:19;0.80;99.90
18797;DHT22;9526;52.612;13.300;2023-04-03T01:47:42;0.70;99.90
18797;DHT22;9526;52.612;13.300;2023-04-03T01:50:08;0.70;99.90
18797;DHT22;9526;52.612;13.300;2023-04-03T01:52:32;0.60;99.90
18797;DHT22;9526;52.612;13.300;2023-04-03T01:54:56;0.60;99.90
18797;DHT22;9526;52.612;13.300;2023-04-03T01:57:20;0.60;99.90
18797;DHT22;9526;52.612;13.300;2023-04-03T01:59:44;0.50;99.90
18797;DHT22;9526;52.612;13.300;2023-04-03T02:02:08;0.50;99.90
18797;DHT22;9526;52.612;13.300;2023-04-03T02:04:31;0.50;99.90
18797;DHT22;9526;52.612;13.300;2023-04-03T02:06:56;0.40;99.90
18797;DHT22;9526;52.612;13.300;2023-04-03T02:09:20;0.40;99.90
18797;DHT22;9526;52.612;13.300;2023-04-03T02:11:46;0.30;99.90
18797;DHT22;9526;52.612;13.300;2023-04-03T02:14:10;0.30;99.90
18797;DHT22;9526;52.612;13.300;2023-04-03T02:16:34;0.30;99.90
18797;DHT22;9526;52.612;13.300;2023-04-03T02:18:58;0.20;99.90
18797;DHT22;9526;52.612;13.300;2023-04-03T02:21:21;0.20;99.90
18797;DHT22;9526;52.612;13.300;2023-04-03T02:23:47;0.20;99.90
18797;DHT22;9526;52.612;13.300;2023-04-03T02:26:13;0.20;99.90
18797;DHT22;9526;52.612;13.300;2023-04-03T02:28:40;0.10;99.90
18797;DHT22;9526;52.612;13.300;2023-04-03T02:31:04;0.10;99.90
18797;DHT22;9526;52.612;13.300;2023-04-03T02:33:30;0.00;99.90
18797;DHT22;9526;52.612;13.300;2023-04-03T02:35:55;0.00;99.90
18797;DHT22;9526;52.612;13.300;2023-04-03T02:38:19;0.00;99.90
18797;DHT22;9526;52.612;13.300;2023-04-03T02:40:44;0.00;99.90
18797;DHT22;9526;52.612;13.300;2023-04-03T02:43:08;0.00;99.90
18797;DHT22;9526;52.612;13.300;2023-04-03T02:45:32;-0.10;99.90
18797;DHT22;9526;52.612;13.300;2023-04-03T02:47:57;-0.10;99.90
18797;DHT22;9526;52.612;13.300;2023-04-03T02:50:20;-0.10;99.90
18797;DHT22;9526;52.612;13.300;2023-04-03T02:52:44;-0.10;99.90
18797;DHT22;9526;52.612;13.300;2023-04-03T02:55:08;-0.10;99.90
18797;DHT22;9526;52.612;13.300;2023-04-03T02:57:33;-0.10;99.90
18797;DHT22;9526;52.612;13.300;2023-04-03T02:59:57;-0.10;99.90
18797;DHT22;9526;52.612;13.300;2023-04-03T03:02:21;-0.10;99.90
18797;DHT22;9526;52.612;13.300;2023-04-03T03:04:45;-0.10;99.90
18797;DHT22;9526;52.612;13.300;2023-04-03T03:07:09;-0.10;99.90
18797;DHT22;9526;52.612;13.300;2023-04-03T03:09:33;-0.10;99.90
18797;DHT22;9526;52.612;13.300;2023-04-03T03:11:57;-0.10;99.90
18797;DHT22;9526;52.612;13.300;2023-04-03T03:14:22;-0.10;99.90
18797;DHT22;9526;52.612;13.300;2023-04-03T03:16:45;-0.10;99.90
18797;DHT22;9526;52.612;13.300;2023-04-03T03:19:09;-0.10;99.90
18797;DHT22;9526;52.612;13.300;2023-04-03T03:21:34;-0.20;99.90
18797;DHT22;9526;52.612;13.300;2023-04-03T03:23:57;-0.10;99.90
18797;DHT22;9526;52.612;13.300;2023-04-03T03:26:21;-0.10;99.90
18797;DHT22;9526;52.612;13.300;2023-04-03T03:28:45;-0.20;99.90
18797;DHT22;9526;52.612;13.300;2023-04-03T03:31:11;-0.20;99.90
18797;DHT22;9526;52.612;13.300;2023-04-03T03:33:35;-0.20;99.90
18797;DHT22;9526;52.612;13.300;2023-04-03T03:35:59;-0.20;99.90
18797;DHT22;9526;52.612;13.300;2023-04-03T03:38:24;-0.20;99.90
18797;DHT22;9526;52.612;13.300;2023-04-03T03:40:49;-0.20;99.90
18797;DHT22;9526;52.612;13.300;2023-04-03T03:43:15;-0.20;99.90
18797;DHT22;9526;52.612;13.300;2023-04-03T03:45:39;-0.20;99.90
18797;DHT22;9526;52.612;13.300;2023-04-03T03:48:05;-0.20;99.90
18797;DHT22;9526;52.612;13.300;2023-04-03T03:50:29;-0.30;99.90
18797;DHT22;9526;52.612;13.300;2023-04-03T03:52:53;-0.30;99.90
18797;DHT22;9526;52.612;13.300;2023-04-03T03:55:17;-0.30;99.90
18797;DHT22;9526;52.612;13.300;2023-04-03T03:57:45;-0.30;99.90
18797;DHT22;9526;52.612;13.300;2023-04-03T04:00:10;-0.30;99.90
18797;DHT22;9526;52.612;13.300;2023-04-03T04:02:42;-0.30;99.90
18797;DHT22;9526;52.612;13.300;2023-04-03T04:05:11;-0.30;99.90
18797;DHT22;9526;52.612;13.300;2023-04-03T04:07:35;-0.40;99.90
18797;DHT22;9526;52.612;13.300;2023-04-03T04:09:59;-0.40;99.90
18797;DHT22;9526;52.612;13.300;2023-04-03T04:12:23;-0.40;99.90
18797;DHT22;9526;52.612;13.300;2023-04-03T04:14:47;-0.40;99.90
18797;DHT22;9526;52.612;13.300;2023-04-03T04:17:11;-0.40;99.90
18797;DHT22;9526;52.612;13.300;2023-04-03T04:19:34;-0.40;99.90
18797;DHT22;9526;52.612;13.300;2023-04-03T04:22:00;-0.40;99.90
18797;DHT22;9526;52.612;13.300;2023-04-03T04:24:25;-0.40;99.90
18797;DHT22;9526;52.612;13.300;2023-04-03T04:26:50;-0.40;99.90
18797;DHT22;9526;52.612;13.300;2023-04-03T04:29:15;-0.50;99.90
18797;DHT22;9526;52.612;13.300;2023-04-03T04:31:42;-0.50;99.90
18797;DHT22;9526;52.612;13.300;2023-04-03T04:34:06;-0.50;99.90
18797;DHT22;9526;52.612;13.300;2023-04-03T04:36:31;-0.50;99.90
18797;DHT22;9526;52.612;13.300;2023-04-03T04:38:57;-0.50;99.90
18797;DHT22;9526;52.612;13.300;2023-04-03T04:41:22;-0.50;99.90
18797;DHT22;9526;52.612;13.300;2023-04-03T04:43:46;-0.50;99.90
18797;DHT22;9526;52.612;13.300;2023-04-03T04:46:11;-0.50;99.90
18797;DHT22;9526;52.612;13.300;2023-04-03T04:48:40;-0.50;99.90
18797;DHT22;9526;52.612;13.300;2023-04-03T04:51:05;-0.50;99.90
18797;DHT22;9526;52.612;13.300;2023-04-03T04:53:30;-0.50;99.90
18797;DHT22;9526;52.612;13.300;2023-04-03T04:55:56;-0.50;99.90
18797;DHT22;9526;52.612;13.300;2023-04-03T04:58:20;-0.50;99.90
18797;DHT22;9526;52.612;13.300;2023-04-03T05:00:45;-0.50;99.90
18797;DHT22;9526;52.612;13.300;2023-04-03T05:03:09;-0.50;99.90
18797;DHT22;9526;52.612;13.300;2023-04-03T05:05:33;-0.50;99.90
18797;DHT22;9526;52.612;13.300;2023-04-03T05:07:57;-0.50;99.90
18797;DHT22;9526;52.612;13.300;2023-04-03T05:10:21;-0.50;99.90
18797;DHT22;9526;52.612;13.300;2023-04-03T05:12:48;-0.50;99.90
18797;DHT22;9526;52.612;13.300;2023-04-03T05:15:11;-0.40;99.90
18797;DHT22;9526;52.612;13.300;2023-04-03T05:17:36;-0.40;99.90
18797;DHT22;9526;52.612;13.300;2023-04-03T05:20:01;-0.40;99.90
18797;DHT22;9526;52.612;13.300;2023-04-03T05:22:26;-0.40;99.90
18797;DHT22;9526;52.612;13.300;2023-04-03T05:24:55;-0.40;99.90
18797;DHT22;9526;52.612;13.300;2023-04-03T05:27:19;-0.30;99.90
18797;DHT22;9526;52.612;13.300;2023-04-03T05:29:48;-0.30;99.90
18797;DHT22;9526;52.612;13.300;2023-04-03T05:32:15;-0.30;99.90
18797;DHT22;9526;52.612;13.300;2023-04-03T05:34:42;-0.20;99.90
18797;DHT22;9526;52.612;13.300;2023-04-03T05:37:07;-0.20;99.90
18797;DHT22;9526;52.612;13.300;2023-04-03T05:39:31;-0.10;99.90
18797;DHT22;9526;52.612;13.300;2023-04-03T05:41:56;0.00;99.90
18797;DHT22;9526;52.612;13.300;2023-04-03T05:44:20;0.00;99.90
18797;DHT22;9526;52.612;13.300;2023-04-03T05:46:47;0.10;99.90
18797;DHT22;9526;52.612;13.300;2023-04-03T05:49:11;0.20;99.90
18797;DHT22;9526;52.612;13.300;2023-04-03T05:51:36;0.20;99.90
18797;DHT22;9526;52.612;13.300;2023-04-03T05:54:12;0.30;99.90
18797;DHT22;9526;52.612;13.300;2023-04-03T05:56:38;0.50;99.90
18797;DHT22;9526;52.612;13.300;2023-04-03T05:59:02;0.60;99.90
18797;DHT22;9526;52.612;13.300;2023-04-03T06:01:26;0.70;99.90
18797;DHT22;9526;52.612;13.300;2023-04-03T06:03:52;0.80;99.90
18797;DHT22;9526;52.612;13.300;2023-04-03T06:06:16;1.00;99.90
18797;DHT22;9526;52.612;13.300;2023-04-03T06:08:40;1.30;99.90
18797;DHT22;9526;52.612;13.300;2023-04-03T06:11:06;1.90;99.90
18797;DHT22;9526;52.612;13.300;2023-04-03T06:13:30;2.50;99.90
18797;DHT22;9526;52.612;13.300;2023-04-03T06:15:55;3.10;99.90
18797;DHT22;9526;52.612;13.300;2023-04-03T06:18:20;3.50;99.90
18797;DHT22;9526;52.612;13.300;2023-04-03T06:20:45;4.10;99.90
18797;DHT22;9526;52.612;13.300;2023-04-03T06:23:09;4.70;99.90
18797;DHT22;9526;52.612;13.300;2023-04-03T06:25:34;5.30;99.90
18797;DHT22;9526;52.612;13.300;2023-04-03T06:27:57;5.80;99.90
18797;DHT22;9526;52.612;13.300;2023-04-03T06:30:22;6.10;99.90
18797;DHT22;9526;52.612;13.300;2023-04-03T06:32:45;6.40;99.90
18797;DHT22;9526;52.612;13.300;2023-04-03T06:35:09;6.60;99.90
18797;DHT22;9526;52.612;13.300;2023-04-03T06:37:34;7.20;99.90
18797;DHT22;9526;52.612;13.300;2023-04-03T06:39:58;7.60;99.90
18797;DHT22;9526;52.612;13.300;2023-04-03T06:42:23;7.80;99.90
18797;DHT22;9526;52.612;13.300;2023-04-03T06:45:00;8.40;99.90
18797;DHT22;9526;52.612;13.300;2023-04-03T06:47:23;8.20;99.90
18797;DHT22;9526;52.612;13.300;2023-04-03T06:49:47;8.70;99.90
18797;DHT22;9526;52.612;13.300;2023-04-03T06:52:11;8.90;99.90
18797;DHT22;9526;52.612;13.300;2023-04-03T06:54:36;9.20;99.90
18797;DHT22;9526;52.612;13.300;2023-04-03T06:57:00;9.40;99.90
18797;DHT22;9526;52.612;13.300;2023-04-03T06:59:24;9.70;99.90
18797;DHT22;9526;52.612;13.300;2023-04-03T07:01:48;9.80;99.90
18797;DHT22;9526;52.612;13.300;2023-04-03T07:04:12;9.70;99.90
18797;DHT22;9526;52.612;13.300;2023-04-03T07:06:36;9.90;99.90
18797;DHT22;9526;52.612;13.300;2023-04-03T07:09:00;10.10;99.90
18797;DHT22;9526;52.612;13.300;2023-04-03T07:11:26;10.10;99.40
18797;DHT22;9526;52.612;13.300;2023-04-03T07:13:51;9.70;98.90
18797;DHT22;9526;52.612;13.300;2023-04-03T07:16:15;9.30;99.90
18797;DHT22;9526;52.612;13.300;2023-04-03T07:18:39;9.70;99.90
18797;DHT22;9526;52.612;13.300;2023-04-03T07:21:04;9.30;99.90
18797;DHT22;9526;52.612;13.300;2023-04-03T07:23:28;9.00;99.80
18797;DHT22;9526;52.612;13.300;2023-04-03T07:25:52;8.40;99.90
18797;DHT22;9526;52.612;13.300;2023-04-03T07:28:18;8.00;99.90
18797;DHT22;9526;52.612;13.300;2023-04-03T07:30:43;7.90;99.90
18797;DHT22;9526;52.612;13.300;2023-04-03T07:33:08;7.40;99.90
18797;DHT22;9526;52.612;13.300;2023-04-03T07:35:32;7.10;99.90
18797;DHT22;9526;52.612;13.300;2023-04-03T07:37:55;6.90;99.90
18797;DHT22;9526;52.612;13.300;2023-04-03T07:40:19;6.60;99.90
18797;DHT22;9526;52.612;13.300;2023-04-03T07:42:43;6.20;99.90
18797;DHT22;9526;52.612;13.300;2023-04-03T07:45:09;6.20;99.90
18797;DHT22;9526;52.612;13.300;2023-04-03T07:47:33;6.10;99.90
18797;DHT22;9526;52.612;13.300;2023-04-03T07:49:58;6.20;99.90
18797;DHT22;9526;52.612;13.300;2023-04-03T07:52:21;6.10;99.90
18797;DHT22;9526;52.612;13.300;2023-04-03T07:54:45;6.30;99.90
18797;DHT22;9526;52.612;13.300;2023-04-03T07:57:09;6.10;99.90
18797;DHT22;9526;52.612;13.300;2023-04-03T07:59:33;6.10;99.90
18797;DHT22;9526;52.612;13.300;2023-04-03T08:01:58;5.90;99.90
18797;DHT22;9526;52.612;13.300;2023-04-03T08:04:22;5.60;99.90
18797;DHT22;9526;52.612;13.300;2023-04-03T08:06:47;5.50;99.90
18797;DHT22;9526;52.612;13.300;2023-04-03T08:09:10;5.50;99.90
18797;DHT22;9526;52.612;13.300;2023-04-03T08:11:34;5.50;99.90
18797;DHT22;9526;52.612;13.300;2023-04-03T08:13:58;5.40;99.90
18797;DHT22;9526;52.612;13.300;2023-04-03T08:16:23;5.50;99.90
18797;DHT22;9526;52.612;13.300;2023-04-03T08:18:50;5.40;99.90
18797;DHT22;9526;52.612;13.300;2023-04-03T08:21:14;5.40;99.90
18797;DHT22;9526;52.612;13.300;2023-04-03T08:23:38;5.30;99.90
18797;DHT22;9526;52.612;13.300;2023-04-03T08:26:08;5.20;99.90
18797;DHT22;9526;52.612;13.300;2023-04-03T08:28:32;5.10;99.90
18797;DHT22;9526;52.612;13.300;2023-04-03T08:30:56;5.20;99.90
18797;DHT22;9526;52.612;13.300;2023-04-03T08:33:20;5.20;99.90
18797;DHT22;9526;52.612;13.300;2023-04-03T08:35:45;5.30;99.90
18797;DHT22;9526;52.612;13.300;2023-04-03T08:38:09;5.20;99.90
18797;DHT22;9526;52.612;13.300;2023-04-03T08:40:33;5.20;99.90
18797;DHT22;9526;52.612;13.300;2023-04-03T08:43:04;5.20;99.90
18797;DHT22;9526;52.612;13.300;2023-04-03T08:45:45;5.20;99.90
18797;DHT22;9526;52.612;13.300;2023-04-03T08:48:14;4.90;99.90
18797;DHT22;9526;52.612;13.300;2023-04-03T08:50:41;4.90;99.90
18797;DHT22;9526;52.612;13.300;2023-04-03T08:53:13;5.10;99.90
18797;DHT22;9526;52.612;13.300;2023-04-03T08:55:42;5.40;99.90
18797;DHT22;9526;52.612;13.300;2023-04-03T08:58:11;5.70;99.90
18797;DHT22;9526;52.612;13.300;2023-04-03T09:00:43;5.70;99.90
18797;DHT22;9526;52.612;13.300;2023-04-03T09:03:12;5.80;99.90
18797;DHT22;9526;52.612;13.300;2023-04-03T09:05:41;5.90;99.90
18797;DHT22;9526;52.612;13.300;2023-04-03T09:08:18;6.00;99.90
18797;DHT22;9526;52.612;13.300;2023-04-03T09:10:45;6.10;99.90
18797;DHT22;9526;52.612;13.300;2023-04-03T09:13:17;6.00;99.90
18797;DHT22;9526;52.612;13.300;2023-04-03T09:15:47;5.90;99.90
18797;DHT22;9526;52.612;13.300;2023-04-03T09:18:15;6.00;99.90
18797;DHT22;9526;52.612;13.300;2023-04-03T09:20:46;6.50;99.90
18797;DHT22;9526;52.612;13.300;2023-04-03T09:23:22;7.00;99.90
18797;DHT22;9526;52.612;13.300;2023-04-03T09:25:50;7.70;99.90
18797;DHT22;9526;52.612;13.300;2023-04-03T09:28:16;7.90;99.90
18797;DHT22;9526;52.612;13.300;2023-04-03T09:30:40;8.00;99.90
18797;DHT22;9526;52.612;13.300;2023-04-03T09:33:05;8.00;99.90
18797;DHT22;9526;52.612;13.300;2023-04-03T09:35:31;7.80;99.90
18797;DHT22;9526;52.612;13.300;2023-04-03T09:38:18;7.80;97.40
18797;DHT22;9526;52.612;13.300;2023-04-03T09:40:45;8.30;98.10
18797;DHT22;9526;52.612;13.300;2023-04-03T09:43:27;8.50;95.30
18797;DHT22;9526;52.612;13.300;2023-04-03T09:45:53;8.10;94.20
18797;DHT22;9526;52.612;13.300;2023-04-03T09:48:19;7.70;93.00
18797;DHT22;9526;52.612;13.300;2023-04-03T09:50:54;7.60;92.10
18797;DHT22;9526;52.612;13.300;2023-04-03T09:53:29;7.80;93.70
18797;DHT22;9526;52.612;13.300;2023-04-03T09:55:58;8.00;94.10
18797;DHT22;9526;52.612;13.300;2023-04-03T09:58:27;7.90;95.10
18797;DHT22;9526;52.612;13.300;2023-04-03T10:01:21;7.90;93.00
18797;DHT22;9526;52.612;13.300;2023-04-03T10:04:03;8.00;93.50
18797;DHT22;9526;52.612;13.300;2023-04-03T10:06:33;8.20;93.90
18797;DHT22;9526;52.612;13.300;2023-04-03T10:09:01;8.80;94.70
18797;DHT22;9526;52.612;13.300;2023-04-03T10:11:27;8.90;93.60
18797;DHT22;9526;52.612;13.300;2023-04-03T10:13:53;8.90;93.00
18797;DHT22;9526;52.612;13.300;2023-04-03T10:16:20;8.80;92.40
18797;DHT22;9526;52.612;13.300;2023-04-03T10:19:02;8.50;93.20
18797;DHT22;9526;52.612;13.300;2023-04-03T10:21:37;8.40;95.60
18797;DHT22;9526;52.612;13.300;2023-04-03T10:24:10;8.40;94.70
18797;DHT22;9526;52.612;13.300;2023-04-03T10:26:41;8.40;95.60
18797;DHT22;9526;52.612;13.300;2023-04-03T10:29:18;8.20;94.40
18797;DHT22;9526;52.612;13.300;2023-04-03T10:31:55;8.00;95.50
18797;DHT22;9526;52.612;13.300;2023-04-03T10:34:26;7.60;93.80
18797;DHT22;9526;52.612;13.300;2023-04-03T10:36:57;7.50;95.10
18797;DHT22;9526;52.612;13.300;2023-04-03T10:39:30;7.70;94.30
18797;DHT22;9526;52.612;13.300;2023-04-03T10:42:03;7.60;95.20
18797;DHT22;9526;52.612;13.300;2023-04-03T10:44:47;7.80;95.20
18797;DHT22;9526;52.612;13.300;2023-04-03T10:47:20;7.70;94.00
18797;DHT22;9526;52.612;13.300;2023-04-03T10:49:51;8.30;98.40
18797;DHT22;9526;52.612;13.300;2023-04-03T10:52:24;8.80;96.60
18797;DHT22;9526;52.612;13.300;2023-04-03T10:55:01;8.90;93.10
18797;DHT22;9526;52.612;13.300;2023-04-03T10:57:30;9.00;92.80
18797;DHT22;9526;52.612;13.300;2023-04-03T10:59:57;8.70;93.20
18797;DHT22;9526;52.612;13.300;2023-04-03T11:02:24;8.60;94.00
18797;DHT22;9526;52.612;13.300;2023-04-03T11:04:56;8.40;92.40
18797;DHT22;9526;52.612;13.300;2023-04-03T11:07:26;8.50;93.80
18797;DHT22;9526;52.612;13.300;2023-04-03T11:09:53;8.50;92.90
18797;DHT22;9526;52.612;13.300;2023-04-03T11:12:24;8.60;94.10
18797;DHT22;9526;52.612;13.300;2023-04-03T11:14:50;8.50;92.20
18797;DHT22;9526;52.612;13.300;2023-04-03T11:17:24;8.30;92.60
18797;DHT22;9526;52.612;13.300;2023-04-03T11:19:59;8.10;93.60
18797;DHT22;9526;52.612;13.300;2023-04-03T11:22:32;7.90;93.80
18797;DHT22;9526;52.612;13.300;2023-04-03T11:25:04;7.70;93.20
18797;DHT22;9526;52.612;13.300;2023-04-03T11:27:41;7.80;93.90
18797;DHT22;9526;52.612;13.300;2023-04-03T11:30:14;7.90;94.70
18797;DHT22;9526;52.612;13.300;2023-04-03T11:32:55;7.80;93.90
18797;DHT22;9526;52.612;13.300;2023-04-03T11:35:34;8.00;95.00
18797;DHT22;9526;52.612;13.300;2023-04-03T11:38:00;8.10;94.70
18797;DHT22;9526;52.612;13.300;2023-04-03T11:40:29;7.90;93.40
18797;DHT22;9526;52.612;13.300;2023-04-03T11:43:04;7.90;95.50
18797;DHT22;9526;52.612;13.300;2023-04-03T11:45:37;7.70;94.00
18797;DHT22;9526;52.612;13.300;2023-04-03T11:48:05;8.00;96.10
18797;DHT22;9526;52.612;13.300;2023-04-03T11:50:45;7.80;93.60
18797;DHT22;9526;52.612;13.300;2023-04-03T11:53:29;7.70;95.40
18797;DHT22;9526;52.612;13.300;2023-04-03T11:56:03;7.70;94.60
18797;DHT22;9526;52.612;13.300;2023-04-03T11:58:29;7.80;96.00
18797;DHT22;9526;52.612;13.300;2023-04-03T12:00:59;7.80;95.70
18797;DHT22;9526;52.612;13.300;2023-04-03T12:04:03;7.70;94.70
18797;DHT22;9526;52.612;13.300;2023-04-03T12:12:58;7.60;96.10
18797;DHT22;9526;52.612;13.300;2023-04-03T12:15:54;7.40;96.50
18797;DHT22;9526;52.612;13.300;2023-04-03T12:18:56;7.30;96.40
18797;DHT22;9526;52.612;13.300;2023-04-03T12:21:23;7.40;96.40
18797;DHT22;9526;52.612;13.300;2023-04-03T12:24:03;7.50;97.50
18797;DHT22;9526;52.612;13.300;2023-04-03T12:26:41;7.40;96.60
18797;DHT22;9526;52.612;13.300;2023-04-03T12:29:17;7.30;96.40
18797;DHT22;9526;52.612;13.300;2023-04-03T12:31:53;7.30;96.50
18797;DHT22;9526;52.612;13.300;2023-04-03T12:34:37;7.20;97.50
18797;DHT22;9526;52.612;13.300;2023-04-03T12:37:15;7.30;97.40
18797;DHT22;9526;52.612;13.300;2023-04-03T12:39:54;7.40;97.90
18797;DHT22;9526;52.612;13.300;2023-04-03T12:45:44;7.40;97.40
18797;DHT22;9526;52.612;13.300;2023-04-03T12:48:14;7.40;98.50
18797;DHT22;9526;52.612;13.300;2023-04-03T12:50:40;7.50;98.50
18797;DHT22;9526;52.612;13.300;2023-04-03T12:53:10;7.50;98.40
18797;DHT22;9526;52.612;13.300;2023-04-03T12:55:35;7.60;98.60
18797;DHT22;9526;52.612;13.300;2023-04-03T12:58:14;7.60;96.60
18797;DHT22;9526;52.612;13.300;2023-04-03T13:00:39;7.70;96.20
18797;DHT22;9526;52.612;13.300;2023-04-03T13:03:06;7.50;95.60
18797;DHT22;9526;52.612;13.300;2023-04-03T13:05:31;7.40;97.90
18797;DHT22;9526;52.612;13.300;2023-04-03T13:08:00;7.50;96.10
18797;DHT22;9526;52.612;13.300;2023-04-03T13:10:25;7.40;96.10
18797;DHT22;9526;52.612;13.300;2023-04-03T13:12:51;7.50;97.50
18797;DHT22;9526;52.612;13.300;2023-04-03T13:15:18;7.50;97.30
18797;DHT22;9526;52.612;13.300;2023-04-03T13:17:43;7.50;96.00
18797;DHT22;9526;52.612;13.300;2023-04-03T13:20:16;7.50;96.70
18797;DHT22;9526;52.612;13.300;2023-04-03T13:22:47;7.40;96.60
18797;DHT22;9526;52.612;13.300;2023-04-03T13:25:15;7.50;97.60
18797;DHT22;9526;52.612;13.300;2023-04-03T13:27:40;7.50;96.50
18797;DHT22;9526;52.612;13.300;2023-04-03T13:30:17;7.30;97.00
18797;DHT22;9526;52.612;13.300;2023-04-03T13:32:43;7.20;97.50
18797;DHT22;9526;52.612;13.300;2023-04-03T13:35:34;7.10;97.60
18797;DHT22;9526;52.612;13.300;2023-04-03T13:38:03;7.00;97.80
18797;DHT22;9526;52.612;13.300;2023-04-03T13:40:29;7.00;98.20
18797;DHT22;9526;52.612;13.300;2023-04-03T13:43:17;7.00;98.10
18797;DHT22;9526;52.612;13.300;2023-04-03T13:45:54;7.20;99.60
18797;DHT22;9526;52.612;13.300;2023-04-03T13:48:39;7.00;98.80
18797;DHT22;9526;52.612;13.300;2023-04-03T13:51:13;6.90;98.90
18797;DHT22;9526;52.612;13.300;2023-04-03T13:53:43;6.80;99.20
18797;DHT22;9526;52.612;13.300;2023-04-03T13:56:15;6.80;99.10
18797;DHT22;9526;52.612;13.300;2023-04-03T13:58:53;6.80;99.90
18797;DHT22;9526;52.612;13.300;2023-04-03T14:01:21;6.80;99.90
18797;DHT22;9526;52.612;13.300;2023-04-03T14:03:51;6.80;98.80
18797;DHT22;9526;52.612;13.300;2023-04-03T14:06:18;6.80;99.50
18797;DHT22;9526;52.612;13.300;2023-04-03T14:08:43;6.90;99.70
18797;DHT22;9526;52.612;13.300;2023-04-03T14:11:12;6.90;99.40
18797;DHT22;9526;52.612;13.300;2023-04-03T14:13:38;6.80;99.80
18797;DHT22;9526;52.612;13.300;2023-04-03T14:16:02;6.80;99.90
18797;DHT22;9526;52.612;13.300;2023-04-03T14:18:37;6.80;99.90
18797;DHT22;9526;52.612;13.300;2023-04-03T14:21:01;6.70;99.90
18797;DHT22;9526;52.612;13.300;2023-04-03T14:23:26;6.60;99.90
18797;DHT22;9526;52.612;13.300;2023-04-03T14:25:50;6.60;99.90
18797;DHT22;9526;52.612;13.300;2023-04-03T14:28:16;6.70;99.90
18797;DHT22;9526;52.612;13.300;2023-04-03T14:30:42;6.80;99.90
18797;DHT22;9526;52.612;13.300;2023-04-03T14:33:11;6.90;99.90
18797;DHT22;9526;52.612;13.300;2023-04-03T14:35:37;7.00;99.90
18797;DHT22;9526;52.612;13.300;2023-04-03T14:38:01;7.10;99.90
18797;DHT22;9526;52.612;13.300;2023-04-03T14:40:27;7.10;99.90
18797;DHT22;9526;52.612;13.300;2023-04-03T14:42:51;7.00;99.90
18797;DHT22;9526;52.612;13.300;2023-04-03T14:45:17;6.90;99.90
18797;DHT22;9526;52.612;13.300;2023-04-03T14:47:45;6.90;99.90
18797;DHT22;9526;52.612;13.300;2023-04-03T14:50:13;6.80;99.90
18797;DHT22;9526;52.612;13.300;2023-04-03T14:52:38;6.80;99.90
18797;DHT22;9526;52.612;13.300;2023-04-03T14:55:05;6.80;99.90
18797;DHT22;9526;52.612;13.300;2023-04-03T14:57:31;6.70;99.90
18797;DHT22;9526;52.612;13.300;2023-04-03T14:59:55;6.80;99.90
18797;DHT22;9526;52.612;13.300;2023-04-03T15:02:26;6.80;99.90
18797;DHT22;9526;52.612;13.300;2023-04-03T15:04:52;6.70;99.90
18797;DHT22;9526;52.612;13.300;2023-04-03T15:07:16;6.70;99.90
18797;DHT22;9526;52.612;13.300;2023-04-03T15:09:40;6.60;99.90
18797;DHT22;9526;52.612;13.300;2023-04-03T15:12:04;6.50;99.90
18797;DHT22;9526;52.612;13.300;2023-04-03T15:14:29;6.50;99.90
18797;DHT22;9526;52.612;13.300;2023-04-03T15:17:13;6.40;99.90
18797;DHT22;9526;52.612;13.300;2023-04-03T15:19:39;6.40;99.90
18797;DHT22;9526;52.612;13.300;2023-04-03T15:22:02;6.30;99.90
18797;DHT22;9526;52.612;13.300;2023-04-03T15:24:26;6.30;99.90
18797;DHT22;9526;52.612;13.300;2023-04-03T15:26:50;6.30;99.90
18797;DHT22;9526;52.612;13.300;2023-04-03T15:29:14;6.30;99.90
18797;DHT22;9526;52.612;13.300;2023-04-03T15:31:39;6.30;99.90
18797;DHT22;9526;52.612;13.300;2023-04-03T15:34:03;6.30;99.90
18797;DHT22;9526;52.612;13.300;2023-04-03T15:36:26;6.30;99.90
18797;DHT22;9526;52.612;13.300;2023-04-03T15:38:56;6.30;99.90
18797;DHT22;9526;52.612;13.300;2023-04-03T15:41:19;6.20;99.90
18797;DHT22;9526;52.612;13.300;2023-04-03T15:43:43;6.10;99.90
18797;DHT22;9526;52.612;13.300;2023-04-03T15:46:07;6.10;99.90
18797;DHT22;9526;52.612;13.300;2023-04-03T15:48:32;6.10;99.90
18797;DHT22;9526;52.612;13.300;2023-04-03T15:50:56;6.10;99.90
18797;DHT22;9526;52.612;13.300;2023-04-03T15:53:20;6.10;99.90
18797;DHT22;9526;52.612;13.300;2023-04-03T15:55:44;6.10;99.90
18797;DHT22;9526;52.612;13.300;2023-04-03T15:58:07;6.10;99.90